createdAt,value
2019-02-25T00:01:34.005Z,12.33
2019-02-25T00:04:03.549Z,12.20
2019-02-25T00:06:33.014Z,10.73
2019-02-25T00:09:02.629Z,11.53
2019-02-25T00:11:32.116Z,10.13
2019-02-25T00:14:01.617Z,10.40
2019-02-25T00:16:31.080Z,11.37
2019-02-25T00:19:00.543Z,11.00
2019-02-25T00:21:30.123Z,11.80
2019-02-25T00:23:59.596Z,11.53
2019-02-25T00:26:29.140Z,10.77
2019-02-25T00:28:58.666Z,11.20
2019-02-25T00:31:28.154Z,12.20
2019-02-25T00:33:57.943Z,12.50
2019-02-25T00:36:27.428Z,10.80
2019-02-25T00:38:56.955Z,12.43
2019-02-25T00:41:26.458Z,10.80
2019-02-25T00:43:55.936Z,12.27
2019-02-25T00:46:25.582Z,11.73
2019-02-25T00:48:55.100Z,10.87
2019-02-25T00:51:24.566Z,13.10
2019-02-25T00:53:54.044Z,12.03
2019-02-25T00:56:23.637Z,11.67
2019-02-25T00:58:53.256Z,11.90
2019-02-25T01:01:22.752Z,11.20
2019-02-25T01:03:52.230Z,11.73
2019-02-25T01:06:21.802Z,12.50
2019-02-25T01:08:51.320Z,13.20
2019-02-25T01:11:20.787Z,12.87
2019-02-25T01:13:50.255Z,13.40
2019-02-25T01:16:19.767Z,13.67
2019-02-25T01:18:49.252Z,14.13
2019-02-25T01:21:18.711Z,12.70
2019-02-25T01:23:48.996Z,16.20
2019-02-25T01:26:18.690Z,13.17
2019-02-25T01:28:48.221Z,14.07
2019-02-25T01:31:17.854Z,14.70
2019-02-25T01:33:47.428Z,14.63
2019-02-25T01:36:16.889Z,13.47
2019-02-25T01:38:46.395Z,13.03
2019-02-25T01:41:15.887Z,14.47
2019-02-25T01:43:45.374Z,13.53
2019-02-25T01:46:14.873Z,13.33
2019-02-25T01:48:44.461Z,14.37
2019-02-25T01:51:13.917Z,14.83
2019-02-25T01:53:43.425Z,12.60
2019-02-25T01:56:12.910Z,14.33
2019-02-25T01:58:42.379Z,13.83
2019-02-25T02:01:11.988Z,13.47
2019-02-25T02:03:41.478Z,13.87
2019-02-25T02:06:10.988Z,12.90
2019-02-25T02:08:40.565Z,14.30
2019-02-25T02:11:10.030Z,14.10
2019-02-25T02:13:39.506Z,14.10
2019-02-25T02:16:09.007Z,13.53
2019-02-25T02:18:38.483Z,13.07
2019-02-25T02:21:07.949Z,12.50
2019-02-25T02:23:37.459Z,12.53
2019-02-25T02:26:06.939Z,13.27
2019-02-25T02:28:36.530Z,13.50
2019-02-25T02:31:06.019Z,13.43
2019-02-25T02:33:35.488Z,15.10
2019-02-25T02:36:05.094Z,12.43
2019-02-25T02:38:34.559Z,12.53
2019-02-25T02:41:03.974Z,13.60
2019-02-25T02:43:33.446Z,12.93
2019-02-25T02:46:18.739Z,13.73
2019-02-25T02:48:52.852Z,13.27
2019-02-25T02:51:22.332Z,14.20
2019-02-25T02:53:51.795Z,14.40
2019-02-25T02:56:21.299Z,15.77
2019-02-25T02:58:50.772Z,13.30
2019-02-25T03:01:20.246Z,14.20
2019-02-25T03:03:49.736Z,14.47
2019-02-25T03:06:19.209Z,14.23
2019-02-25T03:08:48.682Z,13.50
2019-02-25T03:11:18.175Z,13.90
2019-02-25T03:13:47.650Z,13.40
2019-02-25T03:16:17.152Z,12.73
2019-02-25T03:18:46.657Z,12.80
2019-02-25T03:21:16.154Z,12.10
2019-02-25T03:23:45.660Z,14.17
2019-02-25T03:26:15.161Z,12.20
2019-02-25T03:28:44.644Z,12.03
2019-02-25T03:31:14.065Z,13.30
2019-02-25T03:33:43.546Z,12.40
2019-02-25T03:36:13.015Z,12.63
2019-02-25T03:38:42.515Z,11.60
2019-02-25T03:41:11.981Z,12.87
2019-02-25T03:43:41.498Z,13.20
2019-02-25T03:46:11.075Z,14.43
2019-02-25T03:48:40.530Z,13.33
2019-02-25T03:51:10.035Z,13.50
2019-02-25T03:53:39.522Z,13.50
2019-02-25T03:56:09.003Z,13.50
2019-02-25T03:58:38.509Z,13.70
2019-02-25T04:01:07.979Z,14.30
2019-02-25T04:03:37.467Z,12.90
2019-02-25T04:06:07.014Z,12.33
2019-02-25T04:08:36.511Z,13.20
2019-02-25T04:11:06.026Z,12.30
2019-02-25T04:13:35.505Z,12.27
2019-02-25T04:16:04.979Z,12.57
2019-02-25T04:18:53.844Z,12.53
2019-02-25T04:21:23.330Z,11.57
2019-02-25T04:23:52.816Z,12.90
2019-02-25T04:26:22.340Z,11.93
2019-02-25T04:28:51.811Z,12.90
2019-02-25T04:31:21.256Z,14.33
2019-02-25T04:33:50.767Z,13.70
2019-02-25T04:36:20.247Z,13.40
2019-02-25T04:38:49.719Z,13.60
2019-02-25T04:41:19.208Z,14.40
2019-02-25T04:43:48.685Z,13.40
2019-02-25T04:46:18.163Z,13.27
2019-02-25T04:48:47.666Z,13.63
2019-02-25T04:51:17.145Z,14.07
2019-02-25T04:53:46.625Z,13.63
2019-02-25T04:56:16.120Z,14.37
2019-02-25T04:58:45.594Z,14.10
2019-02-25T05:01:15.149Z,13.30
2019-02-25T05:03:44.648Z,13.30
2019-02-25T05:06:14.110Z,13.17
2019-02-25T05:08:43.603Z,12.33
2019-02-25T05:11:13.103Z,13.30
2019-02-25T05:13:42.619Z,14.13
2019-02-25T05:16:12.102Z,14.10
2019-02-25T05:18:41.562Z,13.97
2019-02-25T05:21:11.105Z,12.87
2019-02-25T05:23:40.499Z,13.43
2019-02-25T05:26:09.989Z,13.80
2019-02-25T05:28:39.437Z,14.77
2019-02-25T05:31:08.902Z,13.00
2019-02-25T05:33:38.463Z,14.40
2019-02-25T05:36:07.969Z,14.10
2019-02-25T05:38:37.439Z,14.87
2019-02-25T05:41:08.429Z,13.10
2019-02-25T05:43:37.942Z,14.17
2019-02-25T05:46:07.424Z,13.97
2019-02-25T05:48:36.903Z,13.70
2019-02-25T05:51:06.501Z,14.63
2019-02-25T05:53:36.024Z,13.23
2019-02-25T05:56:05.536Z,13.80
2019-02-25T05:58:35.050Z,13.20
2019-02-25T06:01:04.531Z,14.50
2019-02-25T06:03:34.004Z,14.30
2019-02-25T06:06:03.512Z,13.50
2019-02-25T06:08:32.986Z,13.40
2019-02-25T06:11:02.461Z,12.37
2019-02-25T06:13:31.898Z,12.50
2019-02-25T06:16:01.379Z,12.50
2019-02-25T06:18:30.894Z,12.53
2019-02-25T06:21:00.431Z,12.70
2019-02-25T06:23:30.032Z,12.37
2019-02-25T06:25:59.549Z,12.90
2019-02-25T06:28:29.184Z,15.07
2019-02-25T06:30:59.344Z,13.30
2019-02-25T06:33:28.793Z,14.93
2019-02-25T06:35:58.291Z,14.23
2019-02-25T06:38:27.756Z,12.93
2019-02-25T06:40:57.338Z,13.73
2019-02-25T06:43:26.839Z,13.80
2019-02-25T06:45:56.315Z,12.90
2019-02-25T06:48:26.100Z,12.87
2019-02-25T06:50:55.632Z,14.40
2019-02-25T06:53:25.128Z,16.03
2019-02-25T06:55:54.590Z,16.43
2019-02-25T06:58:24.081Z,14.00
2019-02-25T07:00:53.554Z,16.63
2019-02-25T07:03:23.130Z,14.23
2019-02-25T07:06:12.644Z,17.03
2019-02-25T07:08:49.229Z,16.67
2019-02-25T07:11:20.298Z,19.80
2019-02-25T07:13:54.236Z,16.87
2019-02-25T07:16:37.963Z,14.67
2019-02-25T07:19:14.750Z,14.50
2019-02-25T07:21:45.823Z,15.90
2019-02-25T07:24:25.875Z,17.87
2019-02-25T07:26:59.418Z,16.73
2019-02-25T07:29:42.563Z,16.43
2019-02-25T07:32:22.877Z,17.23
2019-02-25T07:35:09.866Z,16.23
2019-02-25T07:37:57.292Z,14.43
2019-02-25T07:40:34.066Z,16.10
2019-02-25T07:43:21.083Z,14.20
2019-02-25T07:45:57.984Z,14.40
2019-02-25T07:48:32.285Z,13.30
2019-02-25T07:51:06.024Z,14.50
2019-02-25T07:53:37.089Z,15.70
2019-02-25T07:56:10.961Z,12.73
2019-02-25T07:58:42.004Z,18.07
2019-02-25T08:01:15.773Z,17.33
2019-02-25T08:03:49.769Z,18.20
2019-02-25T08:06:23.555Z,18.30
2019-02-25T08:08:57.268Z,17.10
2019-02-25T08:11:44.508Z,16.37
2019-02-25T08:14:30.608Z,18.13
2019-02-25T08:17:01.679Z,17.67
2019-02-25T08:19:32.719Z,17.47
2019-02-25T08:22:20.183Z,17.80
2019-02-25T08:24:51.226Z,18.13
2019-02-25T08:27:40.426Z,18.80
2019-02-25T08:30:16.704Z,17.00
2019-02-25T08:32:47.784Z,17.10
2019-02-25T08:36:04.316Z,15.10
2019-02-25T08:38:38.464Z,16.30
2019-02-25T08:41:16.572Z,15.00
2019-02-25T08:44:03.816Z,17.40
2019-02-25T08:46:43.752Z,16.17
2019-02-25T08:49:14.924Z,13.57
2019-02-25T08:51:44.415Z,16.30
2019-02-25T08:54:13.903Z,13.80
2019-02-25T08:56:43.439Z,14.47
2019-02-25T08:59:12.952Z,14.50
2019-02-25T09:01:42.417Z,13.60
2019-02-25T09:04:11.849Z,11.70
2019-02-25T09:06:41.325Z,13.47
2019-02-25T09:09:10.826Z,12.43
2019-02-25T09:11:40.334Z,13.43
2019-02-25T09:14:09.798Z,12.27
2019-02-25T09:16:39.276Z,12.43
2019-02-25T09:19:08.836Z,11.27
2019-02-25T09:21:38.641Z,12.20
2019-02-25T09:24:08.605Z,11.80
2019-02-25T09:26:38.271Z,11.60
2019-02-25T09:29:07.760Z,11.30
2019-02-25T09:31:37.231Z,11.63
2019-02-25T09:34:06.772Z,11.10
2019-02-25T09:36:36.272Z,12.43
2019-02-25T09:39:09.370Z,10.63
2019-02-25T09:41:38.872Z,11.67
2019-02-25T09:44:08.350Z,11.90
2019-02-25T09:46:38.433Z,13.07
2019-02-25T09:49:07.933Z,11.40
2019-02-25T09:51:37.507Z,11.40
2019-02-25T09:54:06.984Z,11.30
2019-02-25T09:56:37.399Z,9.37
2019-02-25T09:59:06.991Z,10.33
2019-02-25T10:01:36.458Z,8.90
2019-02-25T10:04:06.025Z,8.20
2019-02-25T10:06:35.516Z,8.57
2019-02-25T10:09:06.605Z,7.83
2019-02-25T10:11:36.109Z,7.53
2019-02-25T10:14:05.583Z,6.93
2019-02-25T10:16:35.073Z,7.53
2019-02-25T10:19:04.567Z,8.10
2019-02-25T10:21:34.068Z,8.70
2019-02-25T10:24:03.540Z,9.37
2019-02-25T10:26:33.043Z,10.20
2019-02-25T10:29:02.523Z,9.73
2019-02-25T10:31:32.058Z,10.80
2019-02-25T10:34:01.572Z,9.87
2019-02-25T10:36:31.063Z,9.57
2019-02-25T10:39:00.537Z,10.30
2019-02-25T10:41:30.080Z,9.00
2019-02-25T10:44:00.182Z,10.20
2019-02-25T10:46:30.766Z,9.50
2019-02-25T10:49:10.955Z,10.40
2019-02-25T10:51:31.484Z,10.40
2019-02-25T10:54:00.998Z,10.03
2019-02-25T10:56:38.127Z,10.47
2019-02-25T10:59:08.192Z,8.70
2019-02-25T11:01:39.291Z,11.53
2019-02-25T11:04:09.105Z,11.40
2019-02-25T11:06:38.903Z,11.90
2019-02-25T11:09:15.781Z,11.40
2019-02-25T11:11:45.725Z,11.10
2019-02-25T11:14:15.326Z,11.37
2019-02-25T11:16:46.089Z,10.67
2019-02-25T11:19:16.044Z,9.80
2019-02-25T11:21:45.518Z,10.50
2019-02-25T11:24:16.591Z,7.33
2019-02-25T11:26:46.270Z,9.27
2019-02-25T11:29:16.353Z,7.70
2019-02-25T11:31:47.337Z,7.93
2019-02-25T11:34:17.243Z,7.87
2019-02-25T11:36:48.228Z,6.90
2019-02-25T11:39:18.358Z,7.43
2019-02-25T11:41:47.828Z,7.63
2019-02-25T11:44:19.040Z,6.53
2019-02-25T11:46:48.478Z,7.60
2019-02-25T11:49:17.956Z,6.73
2019-02-25T11:51:47.406Z,5.90
2019-02-25T11:54:36.258Z,7.10
2019-02-25T11:57:05.731Z,8.00
2019-02-25T11:59:35.209Z,7.53
2019-02-25T12:02:04.714Z,7.20
2019-02-25T12:04:34.185Z,7.80
2019-02-25T12:07:03.670Z,8.40
2019-02-25T12:09:33.160Z,7.80
2019-02-25T12:12:02.633Z,8.37
2019-02-25T12:14:32.147Z,8.20
2019-02-25T12:17:01.615Z,7.57
2019-02-25T12:19:31.091Z,7.07
2019-02-25T12:22:00.579Z,6.63
2019-02-25T12:24:30.062Z,6.30
2019-02-25T12:26:59.541Z,7.50
2019-02-25T12:29:29.081Z,6.40
2019-02-25T12:31:58.580Z,7.47
2019-02-25T12:34:28.209Z,6.70
2019-02-25T12:36:57.692Z,7.03
2019-02-25T12:39:27.169Z,8.43
2019-02-25T12:41:56.756Z,8.17
2019-02-25T12:44:26.252Z,8.30
2019-02-25T12:46:55.734Z,9.50
2019-02-25T12:49:25.207Z,8.90
2019-02-25T12:51:54.711Z,10.60
2019-02-25T12:54:24.184Z,9.40
2019-02-25T12:56:53.654Z,8.10
2019-02-25T12:59:23.161Z,8.50
2019-02-25T13:01:52.624Z,8.53
2019-02-25T13:04:22.219Z,10.10
2019-02-25T13:06:51.722Z,9.20
2019-02-25T13:09:21.212Z,9.60
2019-02-25T13:11:50.683Z,9.33
2019-02-25T13:14:20.183Z,9.53
2019-02-25T13:16:49.655Z,10.70
2019-02-25T13:19:19.233Z,10.13
2019-02-25T13:21:48.751Z,8.93
2019-02-25T13:24:18.264Z,10.17
2019-02-25T13:26:47.797Z,10.20
2019-02-25T13:29:17.291Z,8.10
2019-02-25T13:31:46.773Z,9.73
2019-02-25T13:34:16.303Z,9.43
2019-02-25T13:36:46.777Z,8.93
2019-02-25T13:39:16.184Z,8.60
2019-02-25T13:41:45.985Z,8.40
2019-02-25T13:44:15.620Z,9.23
2019-02-25T13:46:45.176Z,8.20
2019-02-25T13:49:14.747Z,8.13
2019-02-25T13:51:44.148Z,8.70
2019-02-25T13:54:13.748Z,7.77
2019-02-25T13:56:43.320Z,9.13
2019-02-25T13:59:13.086Z,8.53
2019-02-25T14:01:42.626Z,8.50
2019-02-25T14:04:12.203Z,9.07
2019-02-25T14:06:41.599Z,8.17
2019-02-25T14:09:11.467Z,8.50
2019-02-25T14:11:40.981Z,9.27
2019-02-25T14:14:10.845Z,9.03
2019-02-25T14:16:40.324Z,8.97
2019-02-25T14:19:09.986Z,8.37
2019-02-25T14:21:39.562Z,8.47
2019-02-25T14:24:09.035Z,8.07
2019-02-25T14:26:38.556Z,8.50
2019-02-25T14:29:08.186Z,8.17
2019-02-25T14:31:37.658Z,7.80
2019-02-25T14:34:07.178Z,8.37
2019-02-25T14:36:36.703Z,8.07
2019-02-25T14:39:24.905Z,10.00
2019-02-25T14:41:54.434Z,8.40
2019-02-25T14:44:21.847Z,11.57
2019-02-25T14:46:51.398Z,8.20
2019-02-25T14:49:21.079Z,8.43
2019-02-25T14:51:50.602Z,8.40
2019-02-25T14:54:21.776Z,8.50
2019-02-25T14:56:52.745Z,8.40
2019-02-25T14:59:22.675Z,7.70
2019-02-25T15:01:52.284Z,7.50
2019-02-25T15:04:21.824Z,7.40
2019-02-25T15:06:51.985Z,9.13
2019-02-25T15:09:21.629Z,8.03
2019-02-25T15:11:53.650Z,9.00
2019-02-25T15:14:22.296Z,9.10
2019-02-25T15:16:57.092Z,9.17
2019-02-25T15:19:27.884Z,9.97
2019-02-25T15:21:58.500Z,8.97
2019-02-25T15:24:29.174Z,8.67
2019-02-25T15:26:59.824Z,9.70
2019-02-25T15:29:29.865Z,9.87
2019-02-25T15:32:01.790Z,8.90
2019-02-25T15:34:30.952Z,8.20
2019-02-25T15:37:19.820Z,7.40
2019-02-25T15:39:49.295Z,8.80
2019-02-25T15:42:19.187Z,7.90
2019-02-25T15:44:49.335Z,7.73
2019-02-25T15:47:19.851Z,8.27
2019-02-25T15:49:49.393Z,7.90
2019-02-25T15:52:20.643Z,7.53
2019-02-25T15:54:50.173Z,7.37
2019-02-25T15:57:20.623Z,8.67
2019-02-25T15:59:50.881Z,8.13
2019-02-25T16:02:20.404Z,7.53
2019-02-25T16:04:50.062Z,7.33
2019-02-25T16:07:19.590Z,9.00
2019-02-25T16:09:49.257Z,7.20
2019-02-25T16:12:18.792Z,7.63
2019-02-25T16:14:49.240Z,7.37
2019-02-25T16:17:19.495Z,9.00
2019-02-25T16:19:53.161Z,9.00
2019-02-25T16:22:20.448Z,9.70
2019-02-25T16:24:50.080Z,7.27
2019-02-25T16:27:21.168Z,7.40
2019-02-25T16:29:51.816Z,6.90
2019-02-25T16:32:24.034Z,7.87
2019-02-25T16:34:53.158Z,8.13
2019-02-25T16:37:24.956Z,8.30
2019-02-25T16:39:55.544Z,6.93
2019-02-25T16:42:26.286Z,7.70
2019-02-25T16:44:57.543Z,7.53
2019-02-25T16:47:34.600Z,6.60
2019-02-25T16:50:00.670Z,7.70
2019-02-25T16:52:40.707Z,7.20
2019-02-25T16:55:15.596Z,8.27
2019-02-25T16:57:47.317Z,8.53
2019-02-25T17:00:25.162Z,8.80
2019-02-25T17:02:54.883Z,8.67
2019-02-25T17:05:24.902Z,8.90
2019-02-25T17:07:56.092Z,10.03
2019-02-25T17:10:29.151Z,9.70
2019-02-25T17:12:58.023Z,10.10
2019-02-25T17:15:27.627Z,10.50
2019-02-25T17:17:59.701Z,8.50
2019-02-25T17:20:28.627Z,8.10
2019-02-25T17:22:59.745Z,9.10
2019-02-25T17:25:31.656Z,8.90
2019-02-25T17:28:00.687Z,10.40
2019-02-25T17:30:30.249Z,11.30
2019-02-25T17:33:01.203Z,11.37
2019-02-25T17:35:31.428Z,12.37
2019-02-25T17:38:02.977Z,13.83
2019-02-25T17:40:32.617Z,23.20
2019-02-25T17:43:02.396Z,12.97
2019-02-25T17:45:34.356Z,12.00
2019-02-25T17:48:08.043Z,11.57
2019-02-25T17:50:37.083Z,11.43
2019-02-25T17:53:07.426Z,12.93
2019-02-25T17:55:37.543Z,10.77
2019-02-25T17:58:07.729Z,11.20
2019-02-25T18:00:41.719Z,11.10
2019-02-25T18:03:10.202Z,11.40
2019-02-25T18:05:40.793Z,11.30
2019-02-25T18:08:13.347Z,12.10
2019-02-25T18:10:45.189Z,12.13
2019-02-25T18:13:14.627Z,13.37
2019-02-25T18:15:45.136Z,12.43
2019-02-25T18:18:17.745Z,11.03
2019-02-25T18:20:47.071Z,15.90
2019-02-25T18:23:16.754Z,17.30
2019-02-25T18:25:46.376Z,14.20
2019-02-25T18:28:17.814Z,14.00
2019-02-25T18:30:47.474Z,18.73
2019-02-25T18:33:17.842Z,17.63
2019-02-25T18:35:48.433Z,17.43
2019-02-25T18:38:17.930Z,14.17
2019-02-25T18:40:47.399Z,12.63
2019-02-25T18:43:17.256Z,12.10
2019-02-25T18:45:46.753Z,12.30
2019-02-25T18:48:17.026Z,12.80
2019-02-25T18:50:49.611Z,13.40
2019-02-25T18:53:20.417Z,13.27
2019-02-25T18:55:50.629Z,11.90
2019-02-25T18:58:21.490Z,12.37
2019-02-25T19:00:51.564Z,13.40
2019-02-25T19:03:21.181Z,12.57
2019-02-25T19:05:51.697Z,11.90
2019-02-25T19:08:24.278Z,13.10
2019-02-25T19:10:54.963Z,13.53
2019-02-25T19:13:25.358Z,11.80
2019-02-25T19:15:57.041Z,13.50
2019-02-25T19:18:29.418Z,14.10
2019-02-25T19:20:59.766Z,14.80
2019-02-25T19:23:31.276Z,15.07
2019-02-25T19:26:01.105Z,14.80
2019-02-25T19:28:30.696Z,13.93
2019-02-25T19:31:00.167Z,12.80
2019-02-25T19:33:31.199Z,12.37
2019-02-25T19:36:02.851Z,12.30
2019-02-25T19:38:35.812Z,18.90
2019-02-25T19:41:03.350Z,15.93
2019-02-25T19:43:32.914Z,16.17
2019-02-25T19:46:04.571Z,17.43
2019-02-25T19:48:33.670Z,16.63
2019-02-25T19:51:04.242Z,14.97
2019-02-25T19:53:36.572Z,11.93
2019-02-25T19:56:05.734Z,13.83
2019-02-25T19:58:36.462Z,15.87
2019-02-25T20:01:08.456Z,18.60
2019-02-25T20:03:39.922Z,14.03
2019-02-25T20:06:13.893Z,14.77
2019-02-25T20:08:40.375Z,16.60
2019-02-25T20:11:10.387Z,14.97
2019-02-25T20:13:43.074Z,13.53
2019-02-25T20:16:15.716Z,12.47
2019-02-25T20:18:44.003Z,15.47
2019-02-25T20:21:13.488Z,17.47
2019-02-25T20:23:42.950Z,19.57
2019-02-25T20:26:13.473Z,19.73
2019-02-25T20:28:45.664Z,22.10
2019-02-25T20:31:16.643Z,17.87
2019-02-25T20:33:46.038Z,15.73
2019-02-25T20:36:19.249Z,16.27
2019-02-25T20:38:46.718Z,15.80
2019-02-25T20:41:19.968Z,13.73
2019-02-25T20:43:51.957Z,13.30
2019-02-25T20:46:21.971Z,13.27
2019-02-25T20:48:50.510Z,13.37
2019-02-25T20:51:22.668Z,11.33
2019-02-25T20:53:53.024Z,11.50
2019-02-25T20:56:24.453Z,12.07
2019-02-25T20:58:54.809Z,11.10
2019-02-25T21:01:24.313Z,12.20
2019-02-25T21:03:54.758Z,13.27
2019-02-25T21:06:24.991Z,11.67
2019-02-25T21:08:54.504Z,12.50
2019-02-25T21:11:23.962Z,11.50
2019-02-25T21:13:53.431Z,12.30
2019-02-25T21:16:24.112Z,11.90
2019-02-25T21:18:55.036Z,11.93
2019-02-25T21:21:24.695Z,12.97
2019-02-25T21:23:54.165Z,12.63
2019-02-25T21:26:25.607Z,13.40
2019-02-25T21:28:57.945Z,12.63
2019-02-25T21:31:26.567Z,13.63
2019-02-25T21:33:56.958Z,11.83
2019-02-25T21:36:29.514Z,13.17
2019-02-25T21:38:59.090Z,13.97
2019-02-25T21:41:28.609Z,12.67
2019-02-25T21:43:59.154Z,13.37
2019-02-25T21:46:29.596Z,12.30
2019-02-25T21:49:02.257Z,13.37
2019-02-25T21:51:34.566Z,14.03
2019-02-25T21:54:04.448Z,14.87
2019-02-25T21:56:33.753Z,18.30
2019-02-25T21:59:03.224Z,18.33
2019-02-25T22:01:34.410Z,12.93
2019-02-25T22:04:03.937Z,13.10
2019-02-25T22:06:33.427Z,15.00
2019-02-25T22:09:05.040Z,15.77
2019-02-25T22:11:34.322Z,15.20
2019-02-25T22:14:04.128Z,16.37
2019-02-25T22:16:33.612Z,13.57
2019-02-25T22:19:03.119Z,12.87
2019-02-25T22:21:32.612Z,13.30
2019-02-25T22:24:04.908Z,13.30
2019-02-25T22:26:35.048Z,12.40
2019-02-25T22:29:04.571Z,11.50
2019-02-25T22:31:35.405Z,12.87
2019-02-25T22:34:06.723Z,12.83
2019-02-25T22:36:43.786Z,12.80
2019-02-25T22:39:12.246Z,12.43
2019-02-25T22:41:42.330Z,12.60
2019-02-25T22:44:12.951Z,12.50
2019-02-25T22:46:43.433Z,11.30
2019-02-25T22:49:13.043Z,13.13
2019-02-25T22:51:42.597Z,11.70
2019-02-25T22:54:12.484Z,11.70
2019-02-25T22:56:43.287Z,12.73
2019-02-25T22:59:12.747Z,12.00
2019-02-25T23:01:42.256Z,10.33
2019-02-25T23:04:13.404Z,11.30
2019-02-25T23:06:44.553Z,12.60
2019-02-25T23:09:16.375Z,12.97
2019-02-25T23:11:46.077Z,11.53
2019-02-25T23:14:18.034Z,12.27
2019-02-25T23:16:47.976Z,11.60
2019-02-25T23:19:18.166Z,12.00
2019-02-25T23:21:48.687Z,12.20
2019-02-25T23:24:18.188Z,10.47
2019-02-25T23:26:48.680Z,11.70
2019-02-25T23:29:19.676Z,11.97
2019-02-25T23:31:50.121Z,11.83
2019-02-25T23:34:20.402Z,11.03
2019-02-25T23:36:51.755Z,10.53
2019-02-25T23:39:22.110Z,10.70
2019-02-25T23:41:51.607Z,10.80
2019-02-25T23:44:22.216Z,11.00
2019-02-25T23:47:06.681Z,10.43
2019-02-25T23:49:36.526Z,10.00
2019-02-25T23:52:06.942Z,10.77
2019-02-25T23:54:36.507Z,9.83
2019-02-25T23:57:06.027Z,10.70
2019-02-25T23:59:35.473Z,9.20
